Time;durP1;ratioP1;P1;durP2;ratioP2;P2;SDS_P1;SDS_P2;PMS_P1;PMS_P2;Temp;Humidity;BMP_temperature;BMP_pressure;BME280_temperature;BME280_humidity;BME280_pressure;Samples;Min_cycle;Max_cycle;Signal;HPM_P1;HPM_P2
2021/08/08 00:02:23;;;;;;;2.97;2.20;;;15.30;99.90;;;;;;5097070;28;20040;-69
2021/08/08 00:04:49;;;;;;;6.63;2.47;;;15.40;99.90;;;;;;5096670;28;20412;-69
2021/08/08 00:07:15;;;;;;;5.53;1.98;;;15.40;99.90;;;;;;5096624;28;20392;-69
2021/08/08 00:09:42;;;;;;;5.82;2.40;;;15.30;99.90;;;;;;5096570;28;20093;-69
2021/08/08 00:12:10;;;;;;;13.27;3.33;;;15.30;99.90;;;;;;5096789;28;20063;-69
2021/08/08 00:14:36;;;;;;;5.65;3.08;;;15.30;99.90;;;;;;5096658;28;20089;-69
2021/08/08 00:17:03;;;;;;;3.15;2.80;;;15.40;99.90;;;;;;5096565;28;20040;-69
2021/08/08 00:19:28;;;;;;;5.80;3.53;;;15.40;99.90;;;;;;5096103;28;20122;-69
2021/08/08 00:21:54;;;;;;;6.05;3.33;;;15.40;99.90;;;;;;5096408;28;20064;-69
2021/08/08 00:24:20;;;;;;;8.30;3.47;;;15.40;99.90;;;;;;5096886;28;20415;-69
2021/08/08 00:26:45;;;;;;;7.32;3.50;;;15.50;99.90;;;;;;5096303;28;20089;-69
2021/08/08 00:29:11;;;;;;;8.82;3.53;;;15.40;99.90;;;;;;5096035;28;20044;-70
2021/08/08 00:31:37;;;;;;;9.43;4.00;;;15.50;99.90;;;;;;5096199;28;20040;-70
2021/08/08 00:34:02;;;;;;;5.68;3.15;;;15.40;99.90;;;;;;5096213;28;20502;-69
2021/08/08 00:36:28;;;;;;;4.57;3.42;;;15.50;99.90;;;;;;5096365;28;20044;-69
2021/08/08 00:38:56;;;;;;;6.63;3.60;;;15.50;99.90;;;;;;5096064;28;20044;-69
2021/08/08 00:41:23;;;;;;;7.10;3.58;;;15.50;99.90;;;;;;5095901;28;20043;-69
2021/08/08 00:43:48;;;;;;;4.30;3.45;;;15.60;99.90;;;;;;5096547;28;20076;-69
2021/08/08 00:46:15;;;;;;;7.63;3.78;;;15.60;99.90;;;;;;5096310;28;20125;-69
2021/08/08 00:48:40;;;;;;;9.68;3.63;;;15.60;99.90;;;;;;5095043;28;20032;-70
2021/08/08 00:51:06;;;;;;;5.25;3.10;;;15.60;99.90;;;;;;5095963;28;20051;-69
2021/08/08 00:53:32;;;;;;;4.57;3.10;;;15.50;99.90;;;;;;5095959;28;20051;-69
2021/08/08 00:55:58;;;;;;;6.97;3.65;;;15.50;99.90;;;;;;5095819;28;20051;-70
2021/08/08 00:58:26;;;;;;;5.63;3.30;;;15.50;99.90;;;;;;5095837;28;20048;-70
2021/08/08 01:00:55;;;;;;;5.20;3.22;;;15.50;99.90;;;;;;5095475;28;20040;-70
2021/08/08 01:03:22;;;;;;;8.05;3.50;;;15.50;99.90;;;;;;5096331;28;20051;-70
2021/08/08 01:05:52;;;;;;;5.00;2.92;;;15.50;99.90;;;;;;5095517;28;20547;-69
2021/08/08 01:08:25;;;;;;;4.75;3.17;;;15.50;99.90;;;;;;5095906;28;20032;-70
2021/08/08 01:10:53;;;;;;;3.67;2.88;;;15.50;99.90;;;;;;5095148;28;20044;-70
2021/08/08 01:13:20;;;;;;;9.00;3.33;;;15.50;99.90;;;;;;5095465;28;20047;-70
2021/08/08 01:15:49;;;;;;;5.15;3.65;;;15.50;99.90;;;;;;5095665;28;20048;-70
2021/08/08 01:18:16;;;;;;;5.28;2.90;;;15.50;99.90;;;;;;5095477;28;20064;-70
2021/08/08 01:20:44;;;;;;;5.88;2.92;;;15.50;99.90;;;;;;5095255;28;20044;-70
2021/08/08 01:23:12;;;;;;;5.40;3.20;;;15.50;99.90;;;;;;5094511;28;20036;-70
2021/08/08 01:25:39;;;;;;;7.15;3.53;;;15.60;99.90;;;;;;5095221;28;20082;-70
2021/08/08 01:28:05;;;;;;;5.85;2.95;;;15.60;99.90;;;;;;5095281;28;20043;-70
2021/08/08 01:30:31;;;;;;;8.70;3.22;;;15.50;99.90;;;;;;5094811;28;20040;-70
2021/08/08 01:33:09;;;;;;;5.00;3.10;;;15.50;99.90;;;;;;5095046;28;20032;-70
2021/08/08 01:35:34;;;;;;;7.55;2.95;;;15.60;99.90;;;;;;5095111;28;20041;-70
2021/08/08 01:38:01;;;;;;;4.32;2.92;;;15.60;99.90;;;;;;5095079;28;20036;-70
2021/08/08 01:40:43;;;;;;;7.13;3.05;;;15.60;99.90;;;;;;5094640;28;20404;-70
2021/08/08 01:43:14;;;;;;;4.63;2.72;;;15.60;99.90;;;;;;5094920;28;20036;-70
2021/08/08 01:45:42;;;;;;;4.90;3.28;;;15.60;99.90;;;;;;5094823;28;20492;-70
2021/08/08 01:48:12;;;;;;;6.50;2.88;;;15.60;99.90;;;;;;5094955;28;20377;-70
2021/08/08 01:50:38;;;;;;;4.93;2.92;;;15.60;99.90;;;;;;5094354;28;20109;-69
2021/08/08 01:53:04;;;;;;;8.55;2.75;;;15.60;99.90;;;;;;5094888;28;20072;-70
2021/08/08 01:55:30;;;;;;;9.75;3.22;;;15.60;99.90;;;;;;5094893;28;20113;-70
2021/08/08 01:57:57;;;;;;;4.20;2.90;;;15.70;99.90;;;;;;5094599;28;20107;-70
2021/08/08 02:00:27;;;;;;;7.53;3.30;;;15.70;99.90;;;;;;5093451;28;20123;-70
2021/08/08 02:02:55;;;;;;;5.20;3.45;;;15.70;99.90;;;;;;5094746;28;20043;-70
2021/08/08 02:05:22;;;;;;;7.63;3.15;;;15.70;99.90;;;;;;5094372;28;20044;-70
2021/08/08 02:07:48;;;;;;;3.15;2.33;;;15.70;99.90;;;;;;5094346;28;20078;-70
2021/08/08 02:10:14;;;;;;;4.30;3.00;;;15.70;99.90;;;;;;5094210;28;20032;-70
2021/08/08 02:12:40;;;;;;;7.28;3.58;;;15.70;99.90;;;;;;5094085;28;20043;-70
2021/08/08 02:15:08;;;;;;;6.85;3.15;;;15.70;99.90;;;;;;5094544;28;20040;-70
2021/08/08 02:17:35;;;;;;;7.68;3.42;;;15.70;99.90;;;;;;5094731;28;20040;-70
2021/08/08 02:20:01;;;;;;;3.95;2.45;;;15.70;99.90;;;;;;5093926;28;20044;-70
2021/08/08 02:22:27;;;;;;;6.57;3.15;;;15.70;99.90;;;;;;5094572;28;20093;-70
2021/08/08 02:24:52;;;;;;;6.20;3.40;;;15.70;99.90;;;;;;5094266;28;20047;-70
2021/08/08 02:27:18;;;;;;;6.47;3.67;;;15.70;99.90;;;;;;5094170;28;20044;-70
2021/08/08 02:29:44;;;;;;;7.53;4.03;;;15.70;99.90;;;;;;5093709;28;20476;-70
2021/08/08 02:32:09;;;;;;;6.75;3.17;;;15.80;99.90;;;;;;5094025;28;20047;-70
2021/08/08 02:34:35;;;;;;;6.60;3.70;;;15.70;99.90;;;;;;5093924;28;20387;-69
2021/08/08 02:37:00;;;;;;;5.53;3.58;;;15.70;99.90;;;;;;5093761;28;20388;-70
2021/08/08 02:39:26;;;;;;;4.57;3.42;;;15.70;99.90;;;;;;5093643;28;20040;-70
2021/08/08 02:41:52;;;;;;;7.43;4.13;;;15.70;99.90;;;;;;5093777;28;20058;-70
2021/08/08 02:44:18;;;;;;;5.88;4.15;;;15.80;99.90;;;;;;5094160;28;20036;-70
2021/08/08 02:46:44;;;;;;;5.50;3.58;;;15.70;99.90;;;;;;5093638;28;20040;-70
2021/08/08 02:49:09;;;;;;;11.32;4.75;;;15.80;99.90;;;;;;5093388;28;20480;-70
2021/08/08 02:51:35;;;;;;;9.13;5.28;;;15.80;99.90;;;;;;5093550;28;20066;-70
2021/08/08 02:54:01;;;;;;;5.88;4.15;;;15.80;99.90;;;;;;5093667;28;20089;-70
2021/08/08 02:56:27;;;;;;;8.02;4.93;;;15.80;99.90;;;;;;5093733;28;20044;-70
2021/08/08 02:58:53;;;;;;;7.03;4.50;;;15.80;99.90;;;;;;5093424;28;20042;-70
2021/08/08 03:01:18;;;;;;;8.15;4.63;;;15.80;99.90;;;;;;5093654;28;20032;-70
2021/08/08 03:03:44;;;;;;;7.15;4.30;;;15.80;99.90;;;;;;5093639;28;20028;-70
2021/08/08 03:06:13;;;;;;;5.80;4.43;;;15.80;99.90;;;;;;5093639;28;20093;-70
2021/08/08 03:08:40;;;;;;;6.55;4.55;;;15.80;99.90;;;;;;5093515;28;20040;-70
2021/08/08 03:11:06;;;;;;;6.05;4.60;;;15.80;99.90;;;;;;5093376;28;20131;-70
2021/08/08 03:13:31;;;;;;;6.63;4.45;;;15.80;99.90;;;;;;5093091;28;20512;-70
2021/08/08 03:15:58;;;;;;;6.57;5.03;;;15.80;99.90;;;;;;5093523;28;20050;-70
2021/08/08 03:18:24;;;;;;;5.45;4.50;;;15.80;99.90;;;;;;5093319;28;20466;-70
2021/08/08 03:20:49;;;;;;;7.72;5.13;;;15.90;99.90;;;;;;5092937;28;20028;-70
2021/08/08 03:23:17;;;;;;;8.57;5.43;;;15.80;99.90;;;;;;5092497;28;20180;-70
2021/08/08 03:25:43;;;;;;;8.25;5.35;;;15.90;99.90;;;;;;5093363;28;20036;-70
2021/08/08 03:28:09;;;;;;;5.47;4.93;;;15.80;99.90;;;;;;5093331;28;20044;-70
2021/08/08 03:30:36;;;;;;;7.65;5.20;;;15.80;99.90;;;;;;5092841;28;20043;-70
2021/08/08 03:33:02;;;;;;;6.95;4.97;;;15.80;99.90;;;;;;5093157;28;20047;-70
2021/08/08 03:35:28;;;;;;;8.82;5.95;;;15.80;99.90;;;;;;5093118;28;20097;-70
2021/08/08 03:37:53;;;;;;;7.90;5.45;;;15.80;99.90;;;;;;5093296;28;20036;-70
2021/08/08 03:40:19;;;;;;;6.75;5.80;;;15.80;99.90;;;;;;5092850;28;20042;-70
2021/08/08 03:42:45;;;;;;;7.22;5.38;;;15.80;99.90;;;;;;5093573;28;20043;-70
2021/08/08 03:45:11;;;;;;;7.05;5.80;;;15.80;99.90;;;;;;5093038;28;20036;-70
2021/08/08 03:47:37;;;;;;;8.88;6.13;;;15.80;99.90;;;;;;5092995;28;20055;-70
2021/08/08 03:50:03;;;;;;;7.03;5.57;;;15.80;99.90;;;;;;5092831;28;20044;-70
2021/08/08 03:52:28;;;;;;;6.57;5.75;;;15.80;99.90;;;;;;5092997;28;20403;-70
2021/08/08 03:54:54;;;;;;;8.70;6.35;;;15.80;99.90;;;;;;5093295;28;20043;-70
2021/08/08 03:57:19;;;;;;;12.77;7.13;;;15.70;99.90;;;;;;5093390;28;20044;-70
2021/08/08 03:59:45;;;;;;;11.50;6.95;;;15.70;99.90;;;;;;5092696;28;20042;-70
2021/08/08 04:02:11;;;;;;;7.47;6.18;;;15.70;99.90;;;;;;5093173;28;20076;-70
2021/08/08 04:04:36;;;;;;;8.00;6.30;;;15.70;99.90;;;;;;5092943;28;20036;-70
2021/08/08 04:07:02;;;;;;;9.68;6.65;;;15.60;99.90;;;;;;5092923;28;20117;-70
2021/08/08 04:09:28;;;;;;;7.07;5.93;;;15.60;99.90;;;;;;5092851;28;20040;-70
2021/08/08 04:11:54;;;;;;;11.52;7.15;;;15.60;99.90;;;;;;5093415;28;20047;-70
2021/08/08 04:14:19;;;;;;;11.23;6.68;;;15.60;99.90;;;;;;5092658;28;20036;-70
2021/08/08 04:16:46;;;;;;;7.63;6.80;;;15.60;99.90;;;;;;5091911;28;20056;-70
2021/08/08 04:19:12;;;;;;;9.70;7.03;;;15.60;99.90;;;;;;5092890;28;20040;-70
2021/08/08 04:21:37;;;;;;;8.73;6.50;;;15.60;99.90;;;;;;5092900;28;20046;-70
2021/08/08 04:24:03;;;;;;;12.35;6.95;;;15.50;99.90;;;;;;5093730;28;20498;-70
2021/08/08 04:26:29;;;;;;;11.38;7.10;;;15.50;99.90;;;;;;5096473;28;20040;-70
2021/08/08 04:28:55;;;;;;;11.40;7.65;;;15.50;99.90;;;;;;5096257;28;20086;-70
2021/08/08 04:31:21;;;;;;;10.15;7.15;;;15.50;99.90;;;;;;5096272;28;20096;-70
2021/08/08 04:33:46;;;;;;;8.65;7.75;;;15.60;99.90;;;;;;5096157;28;20078;-70
2021/08/08 04:36:12;;;;;;;9.43;8.43;;;15.60;99.90;;;;;;5096098;28;20102;-70
2021/08/08 04:38:39;;;;;;;11.45;8.48;;;15.60;99.90;;;;;;5096029;28;20043;-70
2021/08/08 04:41:05;;;;;;;13.40;9.35;;;15.70;99.90;;;;;;5096059;28;20484;-70
2021/08/08 04:43:31;;;;;;;13.02;9.30;;;15.70;99.90;;;;;;5096458;28;20040;-70
2021/08/08 04:45:56;;;;;;;13.50;10.13;;;15.70;99.90;;;;;;5095889;28;20040;-70
2021/08/08 04:48:22;;;;;;;16.27;11.02;;;15.80;99.90;;;;;;5096036;28;20403;-70
2021/08/08 04:50:48;;;;;;;17.25;11.70;;;15.90;99.90;;;;;;5095896;28;20396;-70
2021/08/08 04:53:15;;;;;;;13.68;11.32;;;15.90;99.90;;;;;;5096127;28;20036;-70
2021/08/08 04:55:42;;;;;;;15.43;11.73;;;15.90;99.90;;;;;;5096128;28;20549;-70
2021/08/08 04:58:08;;;;;;;16.23;11.48;;;16.00;99.90;;;;;;5095941;28;20039;-70
2021/08/08 05:00:33;;;;;;;17.48;11.27;;;16.00;99.90;;;;;;5095374;28;20448;-70
2021/08/08 05:03:01;;;;;;;19.85;13.18;;;16.00;99.90;;;;;;5095641;28;20427;-70
2021/08/08 05:05:27;;;;;;;14.60;11.52;;;16.10;99.90;;;;;;5095471;28;20040;-70
2021/08/08 05:07:53;;;;;;;18.90;12.82;;;16.20;99.90;;;;;;5094690;28;20036;-70
2021/08/08 05:10:20;;;;;;;16.48;12.00;;;16.20;99.90;;;;;;5095198;28;20036;-70
2021/08/08 05:12:46;;;;;;;19.88;12.90;;;16.10;99.90;;;;;;5095732;28;20067;-70
2021/08/08 05:15:13;;;;;;;14.15;12.23;;;16.20;99.90;;;;;;5095800;28;20058;-70
2021/08/08 05:17:39;;;;;;;16.38;12.27;;;16.30;99.90;;;;;;5095790;28;20062;-70
2021/08/08 05:20:06;;;;;;;19.00;12.52;;;16.30;99.90;;;;;;5095147;28;20036;-70
2021/08/08 05:22:32;;;;;;;17.60;13.05;;;16.40;99.90;;;;;;5095221;28;20480;-70
2021/08/08 05:24:57;;;;;;;17.80;12.98;;;16.40;99.90;;;;;;5095546;28;20036;-70
2021/08/08 05:27:24;;;;;;;16.67;12.48;;;16.40;99.90;;;;;;5095416;28;20395;-70
2021/08/08 05:29:49;;;;;;;16.52;12.02;;;16.40;99.90;;;;;;5095059;28;20093;-70
2021/08/08 05:32:15;;;;;;;15.50;11.98;;;16.40;99.90;;;;;;5095279;28;20032;-70
2021/08/08 05:34:41;;;;;;;11.60;9.80;;;16.40;99.90;;;;;;5095282;28;20118;-70
2021/08/08 05:37:06;;;;;;;13.45;9.25;;;16.40;99.90;;;;;;5094945;28;20051;-70
2021/08/08 05:39:32;;;;;;;10.98;8.32;;;16.30;99.90;;;;;;5094667;28;20044;-70
2021/08/08 05:41:58;;;;;;;10.10;8.13;;;16.40;99.90;;;;;;5094991;28;20170;-70
2021/08/08 05:44:24;;;;;;;15.50;8.63;;;16.40;99.90;;;;;;5094916;28;20067;-69
2021/08/08 05:46:50;;;;;;;8.77;7.55;;;16.40;99.90;;;;;;5094767;28;20379;-70
2021/08/08 05:49:16;;;;;;;10.13;7.47;;;16.40;99.90;;;;;;5094486;28;20044;-70
2021/08/08 05:51:42;;;;;;;8.18;6.20;;;16.40;99.90;;;;;;5094721;28;20035;-70
2021/08/08 05:54:08;;;;;;;7.70;5.50;;;16.40;99.90;;;;;;5094720;28;20063;-70
2021/08/08 05:56:34;;;;;;;7.13;5.22;;;16.50;99.90;;;;;;5094963;28;20044;-70
2021/08/08 05:59:03;;;;;;;7.65;5.32;;;16.50;99.90;;;;;;5094278;28;20036;-70
2021/08/08 06:01:29;;;;;;;5.25;4.75;;;16.50;99.90;;;;;;5094472;28;20456;-70
2021/08/08 06:03:54;;;;;;;8.23;4.50;;;16.60;99.90;;;;;;5094873;28;20039;-69
2021/08/08 06:06:20;;;;;;;7.97;4.65;;;16.60;99.90;;;;;;5094639;28;20040;-69
2021/08/08 06:08:46;;;;;;;7.97;5.10;;;16.60;99.90;;;;;;5094269;28;20040;-70
2021/08/08 06:11:11;;;;;;;6.20;4.00;;;16.60;99.90;;;;;;5094397;28;20487;-70
2021/08/08 06:13:37;;;;;;;5.38;4.10;;;16.70;99.90;;;;;;5094253;28;20070;-70
2021/08/08 06:16:03;;;;;;;4.93;4.25;;;16.80;99.90;;;;;;5094212;28;20043;-70
2021/08/08 06:18:29;;;;;;;6.60;4.40;;;17.00;99.90;;;;;;5093882;28;20097;-71
2021/08/08 06:20:55;;;;;;;5.50;4.20;;;17.10;99.90;;;;;;5094239;28;20040;-70
2021/08/08 06:23:20;;;;;;;5.15;4.43;;;17.20;99.90;;;;;;5094472;28;20036;-70
2021/08/08 06:25:46;;;;;;;6.25;4.10;;;17.10;99.90;;;;;;5094085;28;20040;-70
2021/08/08 06:28:12;;;;;;;6.88;4.22;;;17.00;99.90;;;;;;5094613;28;20488;-70
2021/08/08 06:30:37;;;;;;;7.13;4.70;;;17.00;99.90;;;;;;5093804;28;20131;-70
2021/08/08 06:33:03;;;;;;;7.03;4.40;;;16.90;99.90;;;;;;5094210;28;20063;-70
2021/08/08 06:35:29;;;;;;;10.05;5.63;;;16.80;99.90;;;;;;5094018;28;20040;-70
2021/08/08 06:37:54;;;;;;;9.20;5.38;;;16.80;99.90;;;;;;5094255;28;20101;-70
2021/08/08 06:40:20;;;;;;;5.47;4.68;;;16.70;99.90;;;;;;5093719;28;20040;-70
2021/08/08 06:42:46;;;;;;;6.70;4.75;;;16.70;99.90;;;;;;5093847;28;20123;-69
2021/08/08 06:45:12;;;;;;;8.50;4.88;;;16.70;99.90;;;;;;5093765;28;20119;-69
2021/08/08 06:47:37;;;;;;;9.23;5.45;;;16.70;99.90;;;;;;5093463;28;20044;-70
2021/08/08 06:50:04;;;;;;;8.20;5.07;;;16.60;99.90;;;;;;5093735;28;20062;-70
2021/08/08 06:52:29;;;;;;;7.38;4.18;;;16.60;99.90;;;;;;5093836;28;20166;-70
2021/08/08 06:54:55;;;;;;;6.25;4.13;;;16.60;99.90;;;;;;5093820;28;20122;-70
2021/08/08 06:57:25;;;;;;;5.68;3.88;;;16.50;99.90;;;;;;5093587;28;20051;-70
2021/08/08 06:59:52;;;;;;;7.40;4.47;;;16.50;99.90;;;;;;5093355;28;20036;-70
2021/08/08 07:02:17;;;;;;;6.82;3.35;;;16.40;99.90;;;;;;5093474;28;20115;-70
2021/08/08 07:04:43;;;;;;;9.32;4.20;;;16.40;99.90;;;;;;5093573;28;20165;-70
2021/08/08 07:07:08;;;;;;;11.05;5.07;;;16.40;99.90;;;;;;5093286;28;20047;-72
2021/08/08 07:09:34;;;;;;;8.55;4.13;;;16.30;99.90;;;;;;5093353;28;20039;-71
2021/08/08 07:12:00;;;;;;;10.13;4.50;;;16.30;99.90;;;;;;5093569;28;20035;-71
2021/08/08 07:14:26;;;;;;;11.20;5.72;;;16.40;99.90;;;;;;5093325;28;20046;-72
2021/08/08 07:16:52;;;;;;;11.70;5.60;;;16.20;99.90;;;;;;5093628;28;20055;-71
2021/08/08 07:19:19;;;;;;;11.43;5.47;;;16.20;99.90;;;;;;5092947;28;20036;-71
2021/08/08 07:21:45;;;;;;;9.18;5.57;;;16.20;99.90;;;;;;5093256;28;20396;-71
2021/08/08 07:24:11;;;;;;;12.30;5.95;;;16.20;99.90;;;;;;5093821;28;20036;-71
2021/08/08 07:26:36;;;;;;;10.05;6.78;;;16.20;99.90;;;;;;5093583;28;20038;-71
2021/08/08 07:29:02;;;;;;;12.68;6.55;;;16.20;99.90;;;;;;5093038;28;20036;-71
2021/08/08 07:31:28;;;;;;;10.38;5.47;;;16.20;99.90;;;;;;5093431;28;20430;-70
2021/08/08 07:33:54;;;;;;;10.65;6.35;;;16.20;99.90;;;;;;5093297;28;20472;-71
2021/08/08 07:36:20;;;;;;;14.05;6.80;;;16.20;99.90;;;;;;5093664;28;20071;-71
2021/08/08 07:38:45;;;;;;;11.25;6.95;;;16.20;99.90;;;;;;5093200;28;20503;-71
2021/08/08 07:41:11;;;;;;;13.80;7.40;;;16.20;99.90;;;;;;5093274;28;20403;-72
2021/08/08 07:43:38;;;;;;;12.45;7.78;;;16.20;99.90;;;;;;5093285;28;20112;-71
2021/08/08 07:46:04;;;;;;;11.95;8.13;;;16.20;99.90;;;;;;5093186;28;20039;-71
2021/08/08 07:48:30;;;;;;;15.65;9.20;;;16.20;99.90;;;;;;5092788;28;20040;-72
2021/08/08 07:50:55;;;;;;;15.35;9.32;;;16.30;99.90;;;;;;5087435;28;20044;-71
2021/08/08 07:53:21;;;;;;;14.85;9.40;;;16.40;99.90;;;;;;5074648;28;20141;-72
2021/08/08 07:55:49;;;;;;;13.80;9.13;;;16.50;99.90;;;;;;5092816;28;20036;-71
2021/08/08 07:58:16;;;;;;;18.63;9.93;;;16.60;99.90;;;;;;5093159;28;20032;-72
2021/08/08 08:00:41;;;;;;;16.83;10.05;;;16.70;99.90;;;;;;5096429;28;20042;-72
2021/08/08 08:03:07;;;;;;;16.33;10.52;;;16.70;99.90;;;;;;5096653;28;20032;-71
2021/08/08 08:05:33;;;;;;;16.27;10.80;;;16.70;99.90;;;;;;5096327;28;20127;-71
2021/08/08 08:07:58;;;;;;;17.20;10.45;;;16.80;99.90;;;;;;5096651;28;20410;-71
2021/08/08 08:10:24;;;;;;;15.35;10.48;;;16.80;99.90;;;;;;5096170;28;20044;-71
2021/08/08 08:12:50;;;;;;;19.92;11.25;;;16.90;99.90;;;;;;5096496;28;20123;-71
2021/08/08 08:15:15;;;;;;;17.27;10.73;;;16.90;99.90;;;;;;5095406;28;20081;-71
2021/08/08 08:17:43;;;;;;;22.27;11.82;;;17.00;99.90;;;;;;5096452;28;20119;-71
2021/08/08 08:20:10;;;;;;;23.13;12.50;;;17.00;99.90;;;;;;5096016;28;20040;-71
2021/08/08 08:22:36;;;;;;;17.70;10.13;;;17.10;99.90;;;;;;5096367;28;20039;-71
2021/08/08 08:25:02;;;;;;;24.42;11.23;;;17.20;99.90;;;;;;5095268;28;20511;-71
2021/08/08 08:27:27;;;;;;;18.77;11.98;;;17.20;99.90;;;;;;5096762;28;20040;-71
2021/08/08 08:29:53;;;;;;;17.60;11.45;;;17.20;99.90;;;;;;5096043;28;20042;-71
2021/08/08 08:32:19;;;;;;;23.55;13.27;;;17.20;99.90;;;;;;5096312;28;20078;-71
2021/08/08 08:34:44;;;;;;;20.90;11.05;;;17.20;99.90;;;;;;5095030;28;20039;-70
2021/08/08 08:37:10;;;;;;;17.48;10.63;;;17.10;99.90;;;;;;5096126;28;20044;-71
2021/08/08 08:39:36;;;;;;;25.35;12.30;;;17.20;99.90;;;;;;5094578;28;20032;-71
2021/08/08 08:42:03;;;;;;;20.88;10.88;;;17.20;99.90;;;;;;5096031;28;20043;-71
2021/08/08 08:44:29;;;;;;;18.33;10.35;;;17.30;99.90;;;;;;5096004;28;20036;-71
2021/08/08 08:47:01;;;;;;;22.50;11.88;;;17.60;99.90;;;;;;5095877;28;20552;-71
2021/08/08 08:49:28;;;;;;;23.25;10.43;;;17.90;99.90;;;;;;5095769;28;20043;-70
2021/08/08 08:52:05;;;;;;;17.60;8.45;;;18.00;99.90;;;;;;5095773;28;20054;-70
2021/08/08 08:54:32;;;;;;;20.40;9.63;;;18.00;99.90;;;;;;5096299;28;20039;-71
2021/08/08 08:56:59;;;;;;;21.27;8.80;;;18.20;99.90;;;;;;5096298;28;20492;-70
2021/08/08 08:59:25;;;;;;;18.40;8.32;;;18.30;99.90;;;;;;5095406;28;20032;-71
2021/08/08 09:01:51;;;;;;;15.85;7.72;;;18.60;99.90;;;;;;5095833;28;20044;-71
2021/08/08 09:04:18;;;;;;;13.40;7.25;;;18.60;99.90;;;;;;5095055;28;20047;-71
2021/08/08 09:06:43;;;;;;;12.13;6.85;;;18.80;99.90;;;;;;5095114;28;20503;-71
2021/08/08 09:09:09;;;;;;;12.00;6.18;;;18.90;99.90;;;;;;5095572;28;20039;-70
2021/08/08 09:11:39;;;;;;;9.90;5.30;;;18.70;99.90;;;;;;5094184;28;20109;-71
2021/08/08 09:14:07;;;;;;;10.13;6.45;;;18.40;99.90;;;;;;5095699;28;20040;-70
2021/08/08 09:16:38;;;;;;;11.30;6.45;;;18.10;99.90;;;;;;5095743;28;20047;-71
2021/08/08 09:19:04;;;;;;;12.50;6.93;;;17.90;99.90;;;;;;5095150;28;20040;-71
2021/08/08 09:21:33;;;;;;;12.43;6.53;;;17.60;99.90;;;;;;5095417;28;20047;-71
2021/08/08 09:24:01;;;;;;;12.95;6.53;;;17.60;99.90;;;;;;5095427;28;20036;-71
2021/08/08 09:26:35;;;;;;;15.23;6.15;;;17.50;99.90;;;;;;5095246;28;20068;-71
2021/08/08 09:29:07;;;;;;;12.85;6.75;;;17.40;99.90;;;;;;5095296;28;20115;-70
2021/08/08 09:31:45;;;;;;;18.60;7.88;;;17.30;99.90;;;;;;5095164;28;20040;-71
2021/08/08 09:34:25;;;;;;;15.63;7.32;;;17.30;99.90;;;;;;5095294;28;20056;-70
2021/08/08 09:36:53;;;;;;;15.68;6.68;;;17.30;99.90;;;;;;5095250;28;20075;-71
2021/08/08 09:39:35;;;;;;;17.35;7.47;;;17.10;99.90;;;;;;5094675;28;20529;-71
2021/08/08 09:42:24;;;;;;;13.17;7.30;;;17.20;99.90;;;;;;5094885;28;20032;-71
2021/08/08 09:45:00;;;;;;;18.40;8.30;;;17.00;99.90;;;;;;5095149;28;20067;-70
2021/08/08 09:47:43;;;;;;;20.58;9.20;;;17.10;99.90;;;;;;5094971;28;20373;-71
2021/08/08 09:50:21;;;;;;;15.93;8.48;;;17.10;99.90;;;;;;5094527;28;20510;-70
2021/08/08 09:52:54;;;;;;;20.42;9.63;;;17.20;99.90;;;;;;5094902;28;20039;-69
2021/08/08 09:55:22;;;;;;;21.77;11.27;;;17.30;99.90;;;;;;5094491;28;20082;-71
2021/08/08 09:57:49;;;;;;;20.77;9.23;;;17.60;99.90;;;;;;5094901;28;20043;-70
2021/08/08 10:00:26;;;;;;;20.92;10.52;;;17.90;99.90;;;;;;5093723;28;20048;-71
2021/08/08 10:02:58;;;;;;;16.63;9.38;;;18.20;99.90;;;;;;5093175;28;20040;-71
2021/08/08 10:05:27;;;;;;;15.57;7.70;;;18.50;99.90;;;;;;5094535;28;20058;-71
2021/08/08 10:07:54;;;;;;;21.73;7.88;;;18.40;99.90;;;;;;5094754;28;20036;-71
2021/08/08 10:10:21;;;;;;;22.10;8.45;;;18.30;99.90;;;;;;5094277;28;20406;-71
2021/08/08 10:12:58;;;;;;;20.67;8.63;;;18.20;99.90;;;;;;5094952;28;20032;-70
2021/08/08 10:15:24;;;;;;;18.92;8.48;;;18.20;99.90;;;;;;5094807;28;20115;-71
2021/08/08 10:17:51;;;;;;;20.02;8.50;;;18.40;99.90;;;;;;5094917;28;20044;-70
2021/08/08 10:20:18;;;;;;;19.45;8.30;;;18.70;99.90;;;;;;5094230;28;20063;-70
2021/08/08 10:22:46;;;;;;;15.27;7.95;;;18.80;99.90;;;;;;5093591;28;20051;-70
2021/08/08 10:25:12;;;;;;;16.90;7.25;;;18.70;99.90;;;;;;5094579;28;20036;-70
2021/08/08 10:27:38;;;;;;;19.40;8.15;;;18.70;99.90;;;;;;5094070;28;20152;-70
2021/08/08 10:30:06;;;;;;;12.45;6.18;;;18.40;99.90;;;;;;5093700;28;20040;-70
2021/08/08 10:32:32;;;;;;;16.80;7.38;;;18.40;99.90;;;;;;5094504;28;20114;-70
2021/08/08 10:35:12;;;;;;;17.95;6.82;;;18.40;99.90;;;;;;5094365;28;20039;-70
2021/08/08 10:37:40;;;;;;;14.05;5.53;;;18.30;99.90;;;;;;5094136;28;20472;-70
2021/08/08 10:40:06;;;;;;;14.13;7.00;;;18.30;99.90;;;;;;5093446;28;20036;-70
2021/08/08 10:42:42;;;;;;;15.38;6.95;;;18.50;99.90;;;;;;5093760;28;20036;-70
2021/08/08 10:45:19;;;;;;;19.10;7.55;;;18.60;99.90;;;;;;5094242;28;20061;-70
2021/08/08 10:47:54;;;;;;;17.38;7.43;;;18.80;99.90;;;;;;5093981;28;20054;-70
2021/08/08 10:50:19;;;;;;;17.13;7.43;;;18.90;99.90;;;;;;5093380;28;20059;-70
2021/08/08 10:52:45;;;;;;;17.15;6.75;;;18.90;99.90;;;;;;5093665;28;20082;-71
2021/08/08 10:55:23;;;;;;;12.93;6.32;;;18.90;99.90;;;;;;5093639;28;20063;-71
2021/08/08 10:57:49;;;;;;;14.43;5.97;;;18.70;99.90;;;;;;5094118;28;20051;-71
2021/08/08 11:00:16;;;;;;;18.05;6.43;;;18.70;99.90;;;;;;5093892;28;20036;-70
2021/08/08 11:02:46;;;;;;;15.68;6.20;;;18.80;99.90;;;;;;5094032;28;20400;-71
2021/08/08 11:05:14;;;;;;;16.75;7.07;;;18.80;99.90;;;;;;5094282;28;20104;-70
2021/08/08 11:07:41;;;;;;;14.00;6.38;;;18.90;99.90;;;;;;5093231;28;20048;-71
2021/08/08 11:10:09;;;;;;;12.25;5.22;;;19.00;99.90;;;;;;5093352;28;20040;-70
2021/08/08 11:12:37;;;;;;;14.48;5.70;;;19.00;99.90;;;;;;5093255;28;20407;-70
2021/08/08 11:15:05;;;;;;;16.92;7.18;;;19.10;99.90;;;;;;5092248;28;20046;-70
2021/08/08 11:17:31;;;;;;;13.93;5.25;;;19.00;99.90;;;;;;5093707;28;20448;-70
2021/08/08 11:19:57;;;;;;;10.32;5.93;;;19.10;99.90;;;;;;5092998;28;20085;-70
2021/08/08 11:22:23;;;;;;;13.63;6.00;;;19.00;99.90;;;;;;5093431;28;20032;-70
2021/08/08 11:25:03;;;;;;;11.93;5.50;;;18.90;99.90;;;;;;5093314;28;20040;-70
2021/08/08 11:27:56;;;;;;;22.45;6.45;;;18.80;99.90;;;;;;5093515;28;20040;-70
2021/08/08 11:30:22;;;;;;;13.23;5.50;;;18.70;99.90;;;;;;5092275;28;20052;-71
2021/08/08 11:32:54;;;;;;;14.60;5.32;;;19.00;99.90;;;;;;5093891;28;20483;-70
2021/08/08 11:35:30;;;;;;;17.60;5.63;;;19.20;99.90;;;;;;5097641;28;20044;-71
2021/08/08 11:37:56;;;;;;;13.13;5.20;;;19.40;99.90;;;;;;5097656;28;20039;-70
2021/08/08 11:40:26;;;;;;;12.88;4.35;;;19.40;99.90;;;;;;5097076;28;20047;-71
2021/08/08 11:42:57;;;;;;;13.32;4.10;;;19.60;99.90;;;;;;5096900;28;20471;-71
2021/08/08 11:45:32;;;;;;;11.57;4.40;;;19.70;99.90;;;;;;5097368;28;20491;-71
2021/08/08 11:47:59;;;;;;;11.13;4.90;;;19.70;99.90;;;;;;5097558;28;20035;-71
2021/08/08 11:50:28;;;;;;;8.77;4.20;;;19.80;99.90;;;;;;5097424;28;20047;-70
2021/08/08 11:52:56;;;;;;;12.32;4.55;;;19.80;99.90;;;;;;5097280;28;20118;-71
2021/08/08 11:55:21;;;;;;;11.70;4.30;;;19.80;99.90;;;;;;5096921;28;20044;-70
2021/08/08 11:57:47;;;;;;;8.45;4.22;;;19.60;99.90;;;;;;5097091;28;20101;-70
2021/08/08 12:00:13;;;;;;;10.90;4.75;;;19.50;99.90;;;;;;5096646;28;20115;-71
2021/08/08 12:02:39;;;;;;;11.73;4.75;;;19.50;99.90;;;;;;5097480;28;20431;-71
2021/08/08 12:05:08;;;;;;;11.45;4.55;;;19.50;99.90;;;;;;5097148;28;20480;-71
2021/08/08 12:07:34;;;;;;;14.70;5.70;;;19.40;99.90;;;;;;5097346;28;20518;-70
2021/08/08 12:10:02;;;;;;;15.32;5.80;;;19.30;99.90;;;;;;5096874;28;20048;-71
2021/08/08 12:12:36;;;;;;;14.65;5.15;;;19.20;99.90;;;;;;5097581;28;20055;-71
2021/08/08 12:15:03;;;;;;;16.83;5.22;;;19.20;99.90;;;;;;5097855;28;20051;-71
2021/08/08 12:17:28;;;;;;;11.75;4.85;;;19.30;99.90;;;;;;5097278;28;20169;-70
2021/08/08 12:19:57;;;;;;;15.98;5.18;;;19.40;99.90;;;;;;5096172;28;20063;-70
2021/08/08 12:22:26;;;;;;;14.90;5.57;;;19.40;99.90;;;;;;5096421;28;20047;-71
2021/08/08 12:25:07;;;;;;;13.30;5.63;;;19.40;99.90;;;;;;5096973;28;20480;-70
2021/08/08 12:27:41;;;;;;;15.32;5.38;;;19.50;99.90;;;;;;5096765;28;20036;-70
2021/08/08 12:30:12;;;;;;;12.73;5.18;;;19.70;99.90;;;;;;5095227;28;20131;-70
2021/08/08 12:32:39;;;;;;;10.07;4.20;;;19.70;99.90;;;;;;5096677;28;20117;-70
2021/08/08 12:35:11;;;;;;;14.45;4.82;;;19.70;99.90;;;;;;5095157;28;20048;-70
2021/08/08 12:37:37;;;;;;;15.32;5.40;;;19.60;99.90;;;;;;5096200;28;20067;-70
2021/08/08 12:40:16;;;;;;;16.70;5.47;;;19.70;99.90;;;;;;5096082;28;20036;-70
2021/08/08 12:42:43;;;;;;;13.15;5.05;;;19.70;99.90;;;;;;5096252;28;20039;-70